Time;durP1;ratioP1;P1;durP2;ratioP2;P2;SDS_P1;SDS_P2;PMS_P1;PMS_P2;Temp;Humidity;BMP_temperature;BMP_pressure;BME280_temperature;BME280_humidity;BME280_pressure;Samples;Min_cycle;Max_cycle;Signal;HPM_P1;HPM_P2
2023/03/18 00:00:10;;;;;;;19.67;5.73;;;;;;;-147.16;41.58;77728.34;4263596;28;20267;-72
2023/03/18 00:02:37;;;;;;;17.20;6.13;;;;;;;-147.16;41.32;77714.16;4259539;28;20230;-74
2023/03/18 00:05:06;;;;;;;19.03;7.00;;;;;;;-147.16;41.49;77728.34;4272775;28;20304;-73
2023/03/18 00:07:35;;;;;;;17.27;7.20;;;;;;;-147.16;41.29;77732.38;4260014;28;20385;-72
2023/03/18 00:10:03;;;;;;;17.23;6.47;;;;;;;-147.16;41.19;77728.34;4256123;28;20302;-71
2023/03/18 00:12:31;;;;;;;13.67;5.67;;;;;;;-147.16;41.88;77732.38;4266707;28;21134;-75
2023/03/18 00:14:58;;;;;;;14.33;5.07;;;;;;;-147.16;41.28;77716.19;4262687;28;20236;-72
2023/03/18 00:17:25;;;;;;;22.00;6.47;;;;;;;-147.16;41.54;77728.34;4260404;28;20352;-76
2023/03/18 00:19:51;;;;;;;19.63;5.80;;;;;;;-147.16;41.62;77732.38;4266482;28;20245;-73
2023/03/18 00:22:18;;;;;;;16.93;5.83;;;;;;;-147.16;41.50;77726.31;4264656;28;20527;-72
2023/03/18 00:24:44;;;;;;;16.70;6.00;;;;;;;-147.16;41.36;77724.28;4259851;28;20318;-71
2023/03/18 00:27:11;;;;;;;13.77;5.67;;;;;;;-147.16;41.35;77722.25;4267681;28;20231;-74
2023/03/18 00:29:38;;;;;;;21.80;6.20;;;;;;;-147.16;41.37;77728.34;4262548;28;20226;-75
2023/03/18 00:32:05;;;;;;;13.60;5.13;;;;;;;-147.16;41.79;77722.25;4257725;28;20254;-73
2023/03/18 00:34:32;;;;;;;17.00;5.73;;;;;;;-147.16;41.95;77728.34;4263228;28;20245;-71
2023/03/18 00:36:59;;;;;;;15.20;5.47;;;;;;;-147.16;41.73;77736.44;4263313;28;20264;-72
2023/03/18 00:39:27;;;;;;;13.20;5.70;;;;;;;-147.16;41.51;77722.25;4255023;28;20355;-72
2023/03/18 00:41:55;;;;;;;18.67;5.10;;;;;;;-147.16;41.49;77730.34;4276183;28;20398;-70
2023/03/18 00:44:24;;;;;;;14.40;5.17;;;;;;;-147.16;41.80;77732.38;4254071;28;25172;-71
2023/03/18 00:46:50;;;;;;;21.47;5.40;;;;;;;-147.16;41.72;77736.44;4264445;28;21016;-70
2023/03/18 00:49:17;;;;;;;12.50;5.53;;;;;;;-147.16;41.83;77724.28;4258918;28;20405;-74
2023/03/18 00:51:45;;;;;;;13.20;5.20;;;;;;;-147.16;41.78;77744.53;4251792;28;20678;-70
2023/03/18 00:54:15;;;;;;;12.83;5.13;;;;;;;-147.16;41.58;77742.50;4263984;28;20328;-69
2023/03/18 00:56:41;;;;;;;12.60;4.77;;;;;;;-147.16;41.83;77740.47;4246793;28;20238;-73
2023/03/18 00:59:08;;;;;;;14.80;5.23;;;;;;;-147.16;42.01;77738.47;4263366;28;20415;-73
2023/03/18 01:01:35;;;;;;;14.67;6.10;;;;;;;-147.16;42.17;77744.53;4268794;28;25596;-71
2023/03/18 01:04:03;;;;;;;11.13;4.70;;;;;;;-147.16;41.79;77736.44;4265994;28;20237;-76
2023/03/18 01:06:32;;;;;;;13.07;4.83;;;;;;;-147.16;41.70;77740.47;4256937;28;22270;-72
2023/03/18 01:09:03;;;;;;;14.67;4.97;;;;;;;-147.16;41.52;77742.50;4270532;28;20841;-75
2023/03/18 01:11:30;;;;;;;11.60;4.87;;;;;;;-147.16;41.70;77738.47;4264774;28;21204;-71
2023/03/18 01:13:58;;;;;;;16.17;5.00;;;;;;;-147.16;41.85;77744.53;4259860;28;20241;-72
2023/03/18 01:16:25;;;;;;;15.13;4.50;;;;;;;-147.16;41.65;77732.38;4270803;28;20957;-72
2023/03/18 01:18:52;;;;;;;16.90;5.00;;;;;;;-147.16;41.96;77732.38;4270344;28;20232;-71
2023/03/18 01:21:19;;;;;;;14.37;4.60;;;;;;;-147.16;41.54;77738.47;4259350;28;20233;-70
2023/03/18 01:23:47;;;;;;;12.03;4.30;;;;;;;-147.16;42.01;77744.53;4266019;28;20225;-74
2023/03/18 01:26:14;;;;;;;15.60;4.87;;;;;;;-147.16;41.47;77732.38;4276222;28;20367;-74
2023/03/18 01:28:41;;;;;;;12.47;4.80;;;;;;;-147.16;41.25;77728.34;4257332;28;20289;-73
2023/03/18 01:31:08;;;;;;;16.57;4.53;;;;;;;-147.16;41.62;77736.44;4266531;28;20229;-72
2023/03/18 01:33:35;;;;;;;8.50;4.13;;;;;;;-147.16;41.59;77740.47;4265178;28;20241;-71
2023/03/18 01:36:03;;;;;;;13.27;4.27;;;;;;;-147.16;41.17;77732.38;4276154;28;20753;-72
2023/03/18 01:38:31;;;;;;;13.70;4.53;;;;;;;-147.16;41.36;77728.34;4251261;28;21669;-73
2023/03/18 01:40:59;;;;;;;14.70;4.80;;;;;;;-147.16;41.18;77722.25;4271568;28;23291;-72
2023/03/18 01:43:29;;;;;;;16.50;4.43;;;;;;;-147.16;40.94;77720.22;4275853;28;21251;-76
2023/03/18 01:45:57;;;;;;;9.87;4.03;;;;;;;-147.16;41.32;77728.34;4271268;28;22382;-74
2023/03/18 01:48:28;;;;;;;10.70;4.33;;;;;;;-147.16;40.99;77728.34;4274481;28;20602;-70
2023/03/18 01:50:59;;;;;;;23.87;4.53;;;;;;;-147.16;41.26;77722.25;4276556;28;20234;-73
2023/03/18 01:53:30;;;;;;;14.23;4.53;;;;;;;-147.16;41.27;77730.34;4272847;28;20397;-76
2023/03/18 01:55:58;;;;;;;12.87;4.63;;;;;;;-147.16;40.79;77720.22;4272618;28;20299;-73
2023/03/18 01:58:30;;;;;;;10.87;4.20;;;;;;;-147.16;40.82;77720.22;4275678;28;20293;-76
2023/03/18 02:01:01;;;;;;;11.40;3.70;;;;;;;-147.16;41.00;77724.28;4268285;28;21323;-73
2023/03/18 02:03:28;;;;;;;11.93;4.10;;;;;;;-147.16;40.84;77724.28;4252995;28;20238;-71
2023/03/18 02:05:54;;;;;;;8.50;3.50;;;;;;;-147.16;41.20;77732.38;4270311;28;20302;-71
2023/03/18 02:08:21;;;;;;;14.50;3.77;;;;;;;-147.16;40.89;77728.34;4252193;28;21477;-76
2023/03/18 02:10:48;;;;;;;9.47;4.10;;;;;;;-147.16;40.99;77740.47;4260949;28;20350;-71
2023/03/18 02:13:15;;;;;;;13.97;4.43;;;;;;;-147.16;41.23;77742.50;4264436;28;22447;-73
2023/03/18 02:15:47;;;;;;;13.37;3.77;;;;;;;-147.16;41.12;77734.41;4260864;28;20426;-72
2023/03/18 02:18:28;;;;;;;13.53;4.43;;;;;;;-147.16;41.38;77744.53;4258030;28;21644;-70
2023/03/18 02:21:21;;;;;;;9.97;4.53;;;;;;;-147.16;41.05;77726.31;4250042;28;20255;-72
2023/03/18 02:23:57;;;;;;;14.70;4.57;;;;;;;-147.16;41.45;77734.41;4227069;28;20235;-75
2023/03/18 02:26:47;;;;;;;14.77;4.10;;;;;;;-147.16;41.42;77734.41;4256586;28;23240;-72
2023/03/18 02:29:14;;;;;;;17.53;3.90;;;;;;;-147.16;41.14;77728.34;4251123;28;20242;-72
2023/03/18 02:31:42;;;;;;;13.87;3.63;;;;;;;-147.16;41.47;77740.47;4262697;28;20250;-73
2023/03/18 02:34:09;;;;;;;11.30;3.97;;;;;;;-147.16;41.15;77730.34;4271876;28;20979;-72
2023/03/18 02:36:36;;;;;;;14.73;4.17;;;;;;;-147.16;41.36;77732.38;4240691;28;20238;-71
2023/03/18 02:39:03;;;;;;;13.40;4.20;;;;;;;-147.16;41.65;77746.56;4269593;28;20233;-71
2023/03/18 02:41:32;;;;;;;11.00;3.90;;;;;;;-147.16;41.65;77746.56;4262717;28;20404;-72
2023/03/18 02:44:00;;;;;;;13.90;4.23;;;;;;;-147.16;41.40;77752.63;4260425;28;20584;-72
2023/03/18 02:46:29;;;;;;;10.77;3.70;;;;;;;-147.16;42.02;77750.59;4251381;28;20238;-72
2023/03/18 02:48:58;;;;;;;16.57;4.67;;;;;;;-147.16;41.55;77750.59;4270739;28;22342;-71
2023/03/18 02:51:26;;;;;;;11.47;4.03;;;;;;;-147.16;41.56;77752.63;4253272;28;20295;-73
2023/03/18 02:54:00;;;;;;;14.87;3.77;;;;;;;-147.16;41.67;77736.44;4261219;28;20516;-73
2023/03/18 02:56:27;;;;;;;9.63;3.43;;;;;;;-147.16;41.81;77732.38;4240685;28;21801;-71
2023/03/18 02:58:54;;;;;;;12.10;3.47;;;;;;;-147.16;41.85;77740.47;4262012;28;20245;-71
2023/03/18 03:01:21;;;;;;;12.13;3.80;;;;;;;-147.16;41.54;77744.53;4263703;28;23353;-69
2023/03/18 03:03:47;;;;;;;9.77;3.67;;;;;;;-147.16;41.46;77734.41;4284279;28;20513;-71
2023/03/18 03:06:14;;;;;;;11.33;3.47;;;;;;;-147.16;41.83;77738.47;4272994;28;21687;-70
2023/03/18 03:08:41;;;;;;;15.13;3.90;;;;;;;-147.16;41.90;77740.47;4288683;28;21404;-70
2023/03/18 03:11:07;;;;;;;9.47;4.00;;;;;;;-147.16;42.50;77750.59;4279529;28;21407;-73
2023/03/18 03:13:34;;;;;;;10.87;3.50;;;;;;;-147.16;42.00;77742.50;4272689;28;21298;-70
2023/03/18 03:16:01;;;;;;;8.73;3.13;;;;;;;-147.16;41.67;77732.38;4241791;28;20942;-73
2023/03/18 03:18:29;;;;;;;9.43;3.53;;;;;;;-147.16;42.13;77748.59;4276947;28;20323;-70
2023/03/18 03:20:55;;;;;;;8.60;2.87;;;;;;;-147.16;42.24;77762.75;4277499;28;20415;-71
2023/03/18 03:23:22;;;;;;;8.70;3.10;;;;;;;-147.16;42.21;77758.72;4270741;28;21822;-73
2023/03/18 03:25:48;;;;;;;7.40;3.30;;;;;;;-147.16;41.77;77748.59;4274810;28;20260;-75
2023/03/18 03:28:15;;;;;;;6.97;3.00;;;;;;;-147.16;41.98;77750.59;4289935;28;20242;-72
2023/03/18 03:30:42;;;;;;;9.03;3.10;;;;;;;-147.16;41.67;77744.53;4267070;28;20302;-69
2023/03/18 03:33:09;;;;;;;10.77;3.57;;;;;;;-147.16;41.66;77754.66;4267918;28;20332;-72
2023/03/18 03:35:37;;;;;;;17.67;3.33;;;;;;;-147.16;42.15;77760.72;4257614;28;20245;-71
2023/03/18 03:38:04;;;;;;;8.50;2.93;;;;;;;-147.16;42.16;77760.72;4276232;28;20237;-69
2023/03/18 03:40:31;;;;;;;8.10;3.10;;;;;;;-147.16;42.09;77764.78;4266375;28;21781;-70
2023/03/18 03:42:58;;;;;;;10.77;3.43;;;;;;;-147.16;42.07;77768.84;4277033;28;20314;-69
2023/03/18 03:45:24;;;;;;;11.93;3.23;;;;;;;-147.16;42.34;77774.91;4272245;28;20815;-73
2023/03/18 03:47:51;;;;;;;8.67;3.27;;;;;;;-147.16;41.92;77768.84;4263944;28;21073;-72
2023/03/18 03:50:17;;;;;;;7.10;3.13;;;;;;;-147.16;41.70;77756.69;4274586;28;20244;-69
2023/03/18 03:52:44;;;;;;;13.80;3.50;;;;;;;-147.16;41.40;77750.59;4273927;28;20233;-72
2023/03/18 03:55:16;;;;;;;14.33;3.50;;;;;;;-147.16;41.78;77764.78;4272907;28;20259;-71
2023/03/18 03:57:43;;;;;;;10.17;2.63;;;;;;;-147.16;42.00;77772.88;4275246;28;20245;-71
2023/03/18 04:00:13;;;;;;;11.53;3.27;;;;;;;-147.16;41.88;77780.97;4270579;28;21206;-74
2023/03/18 04:02:40;;;;;;;8.57;3.07;;;;;;;-147.16;41.78;77780.97;4260781;28;21747;-72
2023/03/18 04:05:08;;;;;;;8.93;3.17;;;;;;;-147.16;41.34;77768.84;4249023;28;20306;-78
2023/03/18 04:07:35;;;;;;;7.23;2.80;;;;;;;-147.16;41.46;77768.84;4253034;28;21910;-70
2023/03/18 04:10:02;;;;;;;8.00;3.63;;;;;;;-147.16;41.30;77772.88;4250430;28;20263;-70
2023/03/18 04:12:28;;;;;;;8.33;3.20;;;;;;;-147.16;41.59;77793.13;4235223;28;20227;-70
2023/03/18 04:14:55;;;;;;;8.60;3.03;;;;;;;-147.16;41.46;77774.91;4256913;28;21595;-70
2023/03/18 04:17:22;;;;;;;7.87;2.97;;;;;;;-147.16;41.62;77776.94;4251884;28;22098;-72
2023/03/18 04:19:48;;;;;;;8.00;3.10;;;;;;;-147.16;41.72;77795.16;4246862;28;20284;-72
2023/03/18 04:22:15;;;;;;;11.30;3.50;;;;;;;-147.16;41.74;77793.13;4236704;28;21383;-72
2023/03/18 04:24:42;;;;;;;7.83;3.17;;;;;;;-147.16;42.11;77797.19;4252020;28;20229;-73
2023/03/18 04:27:08;;;;;;;11.87;3.20;;;;;;;-147.16;41.65;77801.22;4252112;28;21803;-72
2023/03/18 04:29:35;;;;;;;11.00;3.27;;;;;;;-147.16;41.39;77797.19;4248423;28;20254;-72
2023/03/18 04:32:01;;;;;;;10.63;3.10;;;;;;;-147.16;41.49;77785.03;4254034;28;20442;-71
2023/03/18 04:34:28;;;;;;;12.20;3.07;;;;;;;-147.16;41.44;77793.13;4253594;28;20717;-73
2023/03/18 04:36:54;;;;;;;10.20;3.27;;;;;;;-147.16;41.33;77799.22;4247014;28;20230;-72
2023/03/18 04:39:21;;;;;;;8.33;3.50;;;;;;;-147.16;41.43;77797.19;4248426;28;20239;-71
2023/03/18 04:41:48;;;;;;;11.40;3.27;;;;;;;-147.16;41.32;77805.28;4253564;28;20234;-76
2023/03/18 04:44:16;;;;;;;10.17;3.50;;;;;;;-147.16;41.65;77807.31;4236841;28;22927;-73
2023/03/18 04:46:42;;;;;;;12.73;3.43;;;;;;;-147.16;41.53;77811.34;4256456;28;20232;-72
2023/03/18 04:49:09;;;;;;;8.60;2.90;;;;;;;-147.16;41.70;77817.44;4255318;28;20242;-72
2023/03/18 04:51:36;;;;;;;11.57;3.43;;;;;;;-147.16;41.59;77815.41;4244109;28;20361;-67
2023/03/18 04:54:03;;;;;;;9.40;2.70;;;;;;;-147.16;41.75;77815.41;4251924;28;21648;-72
2023/03/18 04:56:30;;;;;;;9.73;3.00;;;;;;;-147.16;41.75;77819.47;4273279;28;20233;-75
2023/03/18 04:58:56;;;;;;;9.00;2.80;;;;;;;-147.16;41.53;77821.47;4250477;28;20246;-72
2023/03/18 05:01:23;;;;;;;10.53;2.83;;;;;;;-147.16;41.70;77809.34;4257722;28;20242;-72
2023/03/18 05:03:50;;;;;;;8.67;3.00;;;;;;;-147.16;41.56;77803.25;4316769;28;21272;-73
2023/03/18 05:06:25;;;;;;;11.80;2.80;;;;;;;-147.16;42.07;77799.22;4297589;28;20237;-74
2023/03/18 05:08:53;;;;;;;9.13;3.30;;;;;;;-147.16;41.05;77795.16;4282158;28;20237;-72
2023/03/18 05:11:20;;;;;;;10.67;2.90;;;;;;;-147.16;41.76;77805.28;4301339;28;24142;-68
2023/03/18 05:13:50;;;;;;;10.40;2.90;;;;;;;-147.16;41.66;77807.31;4296091;28;20225;-76
2023/03/18 05:16:17;;;;;;;11.60;2.70;;;;;;;-147.16;41.67;77805.28;4266755;28;20236;-75
2023/03/18 05:18:45;;;;;;;10.53;2.77;;;;;;;-147.16;41.23;77799.22;4280156;28;21236;-75
2023/03/18 05:21:12;;;;;;;7.90;2.83;;;;;;;-147.16;41.36;77789.09;4286655;28;20426;-68
2023/03/18 05:23:39;;;;;;;8.97;2.87;;;;;;;-147.16;41.28;77785.03;4279585;28;22306;-72
2023/03/18 05:26:06;;;;;;;17.63;3.27;;;;;;;-147.16;41.44;77785.03;4260319;28;21057;-70
2023/03/18 05:28:33;;;;;;;9.30;2.97;;;;;;;-147.16;41.57;77791.09;4283966;28;20237;-68
2023/03/18 05:30:59;;;;;;;12.10;2.87;;;;;;;-147.16;41.44;77783.00;4279895;28;21181;-68
2023/03/18 05:33:26;;;;;;;8.50;2.77;;;;;;;-147.16;41.01;77772.88;4284941;27;23316;-69
2023/03/18 05:35:52;;;;;;;5.73;2.80;;;;;;;-147.16;41.12;77778.97;4292334;28;20431;-68
2023/03/18 05:38:19;;;;;;;9.60;2.60;;;;;;;-147.16;40.85;77768.84;4274914;28;20241;-68
2023/03/18 05:40:47;;;;;;;8.43;3.00;;;;;;;-147.16;41.30;77758.72;4280141;28;20241;-67
2023/03/18 05:43:13;;;;;;;8.17;2.93;;;;;;;-147.16;40.57;77744.53;4272591;28;20248;-69
2023/03/18 05:45:41;;;;;;;10.40;2.80;;;;;;;-147.16;40.29;77748.59;4274337;28;22225;-69
2023/03/18 05:48:07;;;;;;;10.90;3.20;;;;;;;-147.16;40.34;77736.44;4279876;28;20273;-67
2023/03/18 05:50:36;;;;;;;6.97;3.30;;;;;;;-147.16;40.68;77734.41;4280299;28;21394;-68
2023/03/18 05:53:04;;;;;;;9.83;3.10;;;;;;;-147.16;40.68;77726.31;4280067;27;20312;-70
2023/03/18 05:55:31;;;;;;;11.93;2.97;;;;;;;-147.16;40.40;77724.28;4277425;28;26424;-70
2023/03/18 05:57:59;;;;;;;10.87;3.20;;;;;;;-147.16;39.93;77716.19;4271664;28;20945;-68
2023/03/18 06:00:27;;;;;;;9.73;3.00;;;;;;;-147.16;39.35;77699.97;4277939;28;20382;-69
2023/03/18 09:09:24;;;;;;;9.13;2.97;;;;;;;-147.16;27.44;76764.53;5006804;24;20244;-64
2023/03/18 09:12:10;;;;;;;7.00;2.87;;;;;;;-147.16;27.54;76705.81;4692583;30;20350;-66
2023/03/18 09:14:37;;;;;;;10.63;3.13;;;;;;;-147.16;26.90;76679.50;4696814;30;20240;-63
2023/03/18 09:17:05;;;;;;;11.63;3.10;;;;;;;-147.16;27.57;76720.00;4706037;30;20378;-64
2023/03/18 09:19:35;;;;;;;7.40;2.93;;;;;;;-147.16;27.32;76744.28;4703846;30;20253;-61
2023/03/18 09:22:03;;;;;;;10.63;3.10;;;;;;;-147.16;27.41;76752.38;4711787;30;21044;-64
2023/03/18 09:24:30;;;;;;;14.10;3.50;;;;;;;-147.16;27.18;76740.22;4715786;30;20240;-62
2023/03/18 09:26:58;;;;;;;8.50;2.77;;;;;;;-147.16;27.54;76792.88;4711694;30;20752;-64
2023/03/18 09:29:26;;;;;;;7.47;2.70;;;;;;;-147.16;27.81;76805.03;4707331;30;20248;-63
2023/03/18 09:31:53;;;;;;;11.07;2.50;;;;;;;-147.16;28.18;76796.91;4712420;30;20647;-64
2023/03/18 09:34:20;;;;;;;6.57;3.00;;;;;;;-147.16;27.81;76744.28;4713866;30;20232;-62
2023/03/18 09:36:49;;;;;;;10.10;3.10;;;;;;;-147.16;27.51;76728.09;4713968;30;20236;-64
2023/03/18 09:39:18;;;;;;;7.57;2.60;;;;;;;-147.16;27.49;76748.34;4715672;30;20263;-62
2023/03/18 09:42:20;;;;;;;10.20;3.17;;;;;;;-147.16;28.17;76805.03;4697125;30;20237;-62
2023/03/18 09:44:56;;;;;;;6.97;3.07;;;;;;;-147.16;27.91;76768.56;4685079;30;20248;-64
2023/03/18 09:47:47;;;;;;;10.10;2.70;;;;;;;-147.16;28.22;76774.66;4714348;30;20589;-64
2023/03/18 09:50:32;;;;;;;10.17;3.23;;;;;;;-147.16;27.99;76752.38;4695202;30;20240;-63
2023/03/18 09:53:10;;;;;;;10.20;3.17;;;;;;;-147.16;28.12;76764.53;4714385;30;20276;-64
2023/03/18 09:55:49;;;;;;;14.20;3.07;;;;;;;-147.16;28.12;76746.31;4698949;30;20845;-65
2023/03/18 09:58:23;;;;;;;8.33;3.20;;;;;;;-147.16;27.19;76732.13;4695053;30;20776;-64
2023/03/18 10:00:59;;;;;;;10.60;3.30;;;;;;;-147.16;27.70;76711.91;4698576;30;20631;-64
2023/03/18 10:03:49;;;;;;;7.87;2.70;;;;;;;-147.16;27.59;76720.00;4714853;30;20240;-63
2023/03/18 10:06:19;;;;;;;18.77;5.60;;;;;;;-147.16;27.92;76722.00;4705267;30;20268;-63
2023/03/18 10:09:23;;;;;;;9.37;3.00;;;;;;;-147.16;27.79;76699.75;4708554;30;21944;-62
2023/03/18 10:11:51;;;;;;;7.37;3.03;;;;;;;-147.16;27.14;76649.13;4714131;30;20244;-63
2023/03/18 10:14:42;;;;;;;11.40;3.20;;;;;;;-147.16;26.70;76661.28;4686065;30;20585;-63
2023/03/18 10:17:17;;;;;;;8.30;2.70;;;;;;;-147.16;26.95;76634.97;4702371;30;20241;-62
2023/03/18 10:19:51;;;;;;;7.83;2.43;;;;;;;-147.16;26.19;76675.44;4716776;30;20249;-62
2023/03/18 10:22:59;;;;;;;7.13;2.50;;;;;;;-147.16;26.16;76738.22;4714553;30;20653;-62
2023/03/18 10:26:07;;;;;;;9.43;3.00;;;;;;;-147.16;26.55;76744.28;4712938;30;20324;-61
2023/03/18 10:28:58;;;;;;;6.03;2.50;;;;;;;-147.16;26.21;76730.13;4658242;30;20487;-64
2023/03/18 10:31:53;;;;;;;8.27;2.87;;;;;;;-147.16;26.23;76750.34;4672654;30;21370;-61
2023/03/18 10:34:22;;;;;;;6.23;2.37;;;;;;;-147.16;26.74;76742.25;4696096;30;20331;-60
2023/03/18 10:36:56;;;;;;;5.93;2.80;;;;;;;-147.16;26.24;76750.34;4698315;30;20244;-61
2023/03/18 10:39:25;;;;;;;6.90;2.60;;;;;;;-147.16;26.29;76740.22;4711891;30;20650;-61
2023/03/18 10:41:53;;;;;;;6.67;2.60;;;;;;;-147.16;26.67;76748.34;4704717;30;20265;-63
2023/03/18 10:44:35;;;;;;;6.47;2.57;;;;;;;-147.16;27.25;76760.47;4699304;30;20675;-61
2023/03/18 10:47:21;;;;;;;7.67;3.13;;;;;;;-147.16;27.41;76744.28;4711643;30;20236;-60
2023/03/18 10:50:13;;;;;;;8.73;3.17;;;;;;;-147.16;27.04;76715.94;4689118;30;20331;-61
2023/03/18 10:52:57;;;;;;;8.07;2.60;;;;;;;-147.16;26.93;76671.41;4715807;30;20244;-61
2023/03/18 10:55:29;;;;;;;5.20;2.33;;;;;;;-147.16;26.88;76683.56;4713736;30;20251;-63
2023/03/18 10:57:56;;;;;;;8.27;2.80;;;;;;;-147.16;26.46;76667.34;4700007;30;20769;-63
2023/03/18 11:00:31;;;;;;;7.17;2.47;;;;;;;-147.16;26.93;76661.28;4712910;30;20237;-63
2023/03/18 11:02:59;;;;;;;9.10;2.80;;;;;;;-147.16;26.46;76655.22;4714674;30;20236;-62
2023/03/18 11:05:32;;;;;;;9.17;2.90;;;;;;;-147.16;26.02;76624.84;4714453;30;20244;-62
2023/03/18 11:08:05;;;;;;;7.93;2.97;;;;;;;-147.16;25.50;76610.66;4715538;30;20256;-62
2023/03/18 11:10:44;;;;;;;10.17;2.83;;;;;;;-147.16;26.64;76596.50;4714768;30;20236;-63
2023/03/18 11:13:18;;;;;;;10.67;3.57;;;;;;;-147.16;26.25;76562.09;4715154;30;20247;-61
2023/03/18 11:15:49;;;;;;;10.50;2.70;;;;;;;-147.16;26.90;76556.00;4716103;30;20337;-63
2023/03/18 11:18:19;;;;;;;9.93;2.70;;;;;;;-147.16;26.67;76582.31;4713689;30;20232;-61
2023/03/18 11:20:48;;;;;;;11.33;3.33;;;;;;;-147.16;26.32;76568.16;4697783;30;20233;-63
2023/03/18 11:23:19;;;;;;;8.40;3.33;;;;;;;-147.16;26.90;76558.03;4714722;30;20335;-63
2023/03/18 11:25:47;;;;;;;7.73;2.97;;;;;;;-147.16;26.82;76543.84;4714980;30;20236;-62
2023/03/18 11:28:28;;;;;;;10.67;2.90;;;;;;;-147.16;26.45;76537.78;4694710;30;20279;-62
2023/03/18 11:30:57;;;;;;;8.07;3.00;;;;;;;-147.16;26.89;76529.69;4699610;30;20239;-64
2023/03/18 11:33:28;;;;;;;8.67;3.53;;;;;;;-147.16;26.38;76515.53;4704449;30;20591;-61
2023/03/18 11:36:04;;;;;;;6.47;3.20;;;;;;;-147.16;26.08;76509.44;4713626;30;20452;-60
2023/03/18 11:38:34;;;;;;;6.63;3.17;;;;;;;-147.16;25.96;76481.09;4715998;30;20264;-62
2023/03/18 11:41:07;;;;;;;8.57;3.40;;;;;;;-147.16;26.12;76473.00;4712011;30;20240;-61
2023/03/18 11:43:36;;;;;;;6.73;2.70;;;;;;;-147.16;26.01;76477.06;4699195;30;20326;-61
2023/03/18 11:46:06;;;;;;;15.07;2.93;;;;;;;-147.16;26.00;76491.22;4701930;30;20237;-63
2023/03/18 11:48:37;;;;;;;10.60;2.90;;;;;;;-147.16;26.39;76513.50;4715378;30;20348;-63
2023/03/18 11:51:28;;;;;;;8.30;3.03;;;;;;;-147.16;26.21;76513.50;4713593;30;20281;-62
2023/03/18 11:53:55;;;;;;;9.80;2.93;;;;;;;-147.16;26.10;76499.31;4716092;30;20240;-62
2023/03/18 11:56:46;;;;;;;10.70;2.80;;;;;;;-147.16;25.78;76485.16;4714398;30;20237;-62
2023/03/18 11:59:27;;;;;;;10.10;3.07;;;;;;;-147.16;25.48;76452.75;4707871;30;20237;-64
2023/03/18 12:02:28;;;;;;;8.50;3.03;;;;;;;-147.16;26.07;76432.53;4709069;30;20316;-62
2023/03/18 12:04:58;;;;;;;6.30;2.70;;;;;;;-147.16;26.12;76420.38;4714904;30;20256;-62
2023/03/18 12:07:46;;;;;;;7.17;2.87;;;;;;;-147.16;25.96;76408.22;4714218;30;20249;-62
2023/03/18 12:10:13;;;;;;;8.80;3.00;;;;;;;-147.16;26.00;76460.84;4715168;30;20317;-60
2023/03/18 12:13:24;;;;;;;9.50;3.13;;;;;;;-147.16;26.56;76483.13;4715695;30;20238;-62
2023/03/18 12:16:13;;;;;;;8.93;2.70;;;;;;;-147.16;26.49;76464.91;4704623;30;20338;-61
2023/03/18 12:19:09;;;;;;;8.70;2.77;;;;;;;-147.16;25.40;76521.59;4713574;30;20237;-63
2023/03/18 12:21:43;;;;;;;6.90;2.60;;;;;;;-147.16;25.90;76503.38;4714901;30;20252;-61
2023/03/18 12:24:25;;;;;;;13.80;3.37;;;;;;;-147.16;25.33;76460.84;4683186;30;20222;-62
2023/03/18 12:27:01;;;;;;;7.63;2.93;;;;;;;-147.16;25.35;76454.78;4713959;30;20386;-63
2023/03/18 12:29:53;;;;;;;10.20;2.93;;;;;;;-147.16;25.91;76489.19;4713088;30;20240;-61
2023/03/18 12:32:32;;;;;;;11.00;3.47;;;;;;;-147.16;26.35;76468.97;4713218;30;20384;-62
2023/03/18 12:35:26;;;;;;;12.13;3.30;;;;;;;-147.16;26.32;76462.88;4714317;30;20406;-63
2023/03/18 12:38:16;;;;;;;7.40;2.70;;;;;;;-147.16;26.15;76456.81;4692416;30;20245;-61
2023/03/18 12:41:24;;;;;;;7.07;3.17;;;;;;;-147.16;26.25;76440.63;4706073;30;20252;-68
2023/03/18 12:43:54;;;;;;;8.27;3.20;;;;;;;-147.16;26.27;76412.28;4698103;30;20240;-61
2023/03/18 12:46:29;;;;;;;8.30;2.73;;;;;;;-147.16;26.01;76416.31;4706024;30;20241;-62
2023/03/18 12:49:03;;;;;;;10.13;3.40;;;;;;;-147.16;25.79;76428.47;4708793;30;20251;-62
2023/03/18 12:51:59;;;;;;;7.17;3.03;;;;;;;-147.16;26.31;76434.53;4708100;30;20249;-63
2023/03/18 12:54:55;;;;;;;9.43;3.70;;;;;;;-147.16;26.22;76398.09;4698140;30;20255;-62
2023/03/18 12:57:49;;;;;;;7.77;3.23;;;;;;;-147.16;25.46;76406.19;4678821;30;20288;-59
2023/03/18 13:00:35;;;;;;;10.60;3.90;;;;;;;-147.16;26.08;76426.44;4707299;30;20350;-60
2023/03/18 13:03:23;;;;;;;8.13;3.03;;;;;;;-147.16;26.62;76434.53;4712131;30;20245;-60
2023/03/18 13:06:04;;;;;;;9.83;3.30;;;;;;;-147.16;26.58;76426.44;4710772;30;20328;-61
2023/03/18 13:08:59;;;;;;;7.00;3.27;;;;;;;-147.16;26.11;76426.44;4710956;30;20573;-59
2023/03/18 13:11:37;;;;;;;7.90;2.97;;;;;;;-147.16;26.59;76416.31;4712437;30;21164;-61
2023/03/18 13:14:41;;;;;;;16.57;3.80;;;;;;;-147.16;26.78;76410.25;4711968;30;20381;-61
2023/03/18 13:17:36;;;;;;;6.87;2.57;;;;;;;-147.16;25.89;76424.41;4708883;30;20327;-64
2023/03/18 13:20:21;;;;;;;12.13;2.90;;;;;;;-147.16;25.62;76444.66;4711617;30;20237;-62
2023/03/18 13:22:50;;;;;;;8.27;3.60;;;;;;;-147.16;25.85;76444.66;4694866;30;20244;-61
2023/03/18 13:25:40;;;;;;;7.60;3.00;;;;;;;-147.16;25.45;76420.38;4712187;30;20241;-62
2023/03/18 13:28:25;;;;;;;7.57;2.90;;;;;;;-147.16;25.47;76387.97;4711820;30;20291;-65
2023/03/18 13:31:00;;;;;;;12.53;3.43;;;;;;;-147.16;25.32;76353.56;4710930;30;20804;-61
2023/03/18 13:33:52;;;;;;;7.43;2.97;;;;;;;-147.16;25.03;76369.75;4711742;30;20247;-60
2023/03/18 13:36:27;;;;;;;9.57;3.13;;;;;;;-147.16;25.12;76408.22;4713462;30;20272;-57
2023/03/18 13:39:26;;;;;;;10.90;3.30;;;;;;;-147.16;25.26;76400.13;4716138;30;20783;-62
2023/03/18 13:42:27;;;;;;;6.50;2.90;;;;;;;-147.16;25.03;76373.81;4715943;30;20721;-61
2023/03/18 13:45:00;;;;;;;11.20;2.73;;;;;;;-147.16;25.00;76375.84;4714284;30;20326;-63
2023/03/18 13:47:30;;;;;;;5.97;2.83;;;;;;;-147.16;25.23;76381.91;4715584;30;20673;-62
2023/03/18 13:50:00;;;;;;;6.20;2.93;;;;;;;-147.16;25.51;76400.13;4715617;30;20238;-61
2023/03/18 13:52:34;;;;;;;7.13;3.00;;;;;;;-147.16;25.47;76420.38;4714433;30;20236;-61
2023/03/18 13:55:06;;;;;;;7.23;2.90;;;;;;;-147.16;25.84;76432.53;4684333;30;20706;-61
2023/03/18 13:57:41;;;;;;;9.07;2.63;;;;;;;-147.16;25.50;76418.34;4716559;30;20233;-61
2023/03/18 14:00:21;;;;;;;10.00;3.10;;;;;;;-147.16;26.06;76452.75;4711023;30;20242;-63
2023/03/18 14:03:01;;;;;;;6.37;3.20;;;;;;;-147.16;26.56;76479.06;4714108;30;20859;-63
2023/03/18 14:05:31;;;;;;;8.80;3.20;;;;;;;-147.16;26.56;76487.19;4716024;30;20264;-64
2023/03/18 14:07:59;;;;;;;14.17;3.80;;;;;;;-147.16;26.72;76487.19;4710975;30;20332;-64
2023/03/18 14:10:26;;;;;;;8.73;3.80;;;;;;;-147.16;26.52;76475.03;4712895;30;20241;-61
2023/03/18 14:12:53;;;;;;;8.43;3.67;;;;;;;-147.16;26.33;76460.84;4715710;30;20232;-62
2023/03/18 14:15:22;;;;;;;7.03;3.23;;;;;;;-147.16;26.22;76456.81;4698069;30;20244;-62
2023/03/18 14:17:55;;;;;;;7.90;3.63;;;;;;;-147.16;26.46;76442.63;4714985;30;20216;-68
2023/03/18 14:20:27;;;;;;;9.83;4.20;;;;;;;-147.16;26.65;76436.56;4712292;30;20702;-61
2023/03/18 14:22:56;;;;;;;10.13;3.17;;;;;;;-147.16;26.21;76416.31;4712600;30;20289;-62
2023/03/18 14:25:38;;;;;;;21.87;4.23;;;;;;;-147.16;26.61;76408.22;4700745;30;20267;-61
2023/03/18 14:28:08;;;;;;;11.63;3.40;;;;;;;-147.16;26.62;76412.28;4692335;30;20248;-61
2023/03/18 14:30:34;;;;;;;10.50;3.30;;;;;;;-147.16;26.75;76402.16;4687518;30;20369;-60
2023/03/18 14:33:24;;;;;;;11.03;3.80;;;;;;;-147.16;26.31;76416.31;4691224;30;20333;-60
2023/03/18 14:36:00;;;;;;;10.07;3.63;;;;;;;-147.16;26.17;76404.19;4696560;30;20241;-61
2023/03/18 14:38:37;;;;;;;10.20;4.13;;;;;;;-147.16;26.34;76418.34;4695776;30;20339;-62
2023/03/18 14:41:22;;;;;;;8.93;4.00;;;;;;;-147.16;26.51;76424.41;4680970;30;20242;-60
2023/03/18 14:44:01;;;;;;;17.17;3.90;;;;;;;-147.16;26.35;76424.41;4695105;30;20331;-63